Decoded Metar for KHEY ( in _UNIDENTIFIED) (IATA:N/A) | Meteo·Mobile Aviation Weather
aviador You're here:

KHEY Decoded Metar

in _UNIDENTIFIED
Report Time2019-01-18 11:03:00
UTC Time2019-01-18 11:14:02
Flight Rules ifr IFR
WindCalm
Visibility9999 m
Phenomena:N/A
Clouds:Broken 006 Hf
Broken 011 Hf
Overcast 023 Hf
Ceiling600 ft
Temp12°C (ISA -2)
Dew Point12°C (100% RH)
QNH1019 hPa
Density Alt23 ft
Elevation318 ft
Report Wrong Elevation
Raw Report
KHEY 181103Z AUTO 00000KT 10SM BKN006 BKN011 OVC023 12/12 A3008
RMK AO2 CIG 006V022 SLP188=

Extra information for KHEY:More info

Metar Taf Metar & Taf Last 4 Metars F.Rules Stats Wind Profile Meteogram Temp Stats Metar ALERT Operation Metar Decoded Social comments